sensor_id;sensor_type;location;lat;lon;timestamp;pressure;altitude;pressure_sealevel;temperature;humidity
45441;BME280;31189;38.790;-77.084;2023-07-20T00:00:59;101207.01;;;34.55;44.62
45441;BME280;31189;38.790;-77.084;2023-07-20T00:03:25;101206.97;;;34.22;45.58
45441;BME280;31189;38.790;-77.084;2023-07-20T00:05:50;101208.05;;;34.65;44.82
45441;BME280;31189;38.790;-77.084;2023-07-20T00:08:16;101212.36;;;34.63;44.95
45441;BME280;31189;38.790;-77.084;2023-07-20T00:10:41;101218.30;;;34.02;46.33
45441;BME280;31189;38.790;-77.084;2023-07-20T00:13:07;101219.25;;;33.90;46.49
45441;BME280;31189;38.790;-77.084;2023-07-20T00:15:32;101213.92;;;34.38;46.24
45441;BME280;31189;38.790;-77.084;2023-07-20T00:17:57;101211.50;;;34.66;45.86
45441;BME280;31189;38.790;-77.084;2023-07-20T00:20:24;101212.38;;;34.35;45.41
45441;BME280;31189;38.790;-77.084;2023-07-20T00:22:48;101222.54;;;33.81;45.97
45441;BME280;31189;38.790;-77.084;2023-07-20T00:25:13;101223.92;;;33.52;46.39
45441;BME280;31189;38.790;-77.084;2023-07-20T00:28:07;101223.34;;;33.99;46.11
45441;BME280;31189;38.790;-77.084;2023-07-20T00:30:06;101223.33;;;34.08;46.50
45441;BME280;31189;38.790;-77.084;2023-07-20T00:32:30;101226.75;;;34.10;46.57
45441;BME280;31189;38.790;-77.084;2023-07-20T00:34:55;101226.13;;;34.22;46.42
45441;BME280;31189;38.790;-77.084;2023-07-20T00:37:21;101223.81;;;33.81;46.86
45441;BME280;31189;38.790;-77.084;2023-07-20T00:39:46;101222.73;;;34.34;46.36
45441;BME280;31189;38.790;-77.084;2023-07-20T00:42:11;101222.20;;;34.62;46.38
45441;BME280;31189;38.790;-77.084;2023-07-20T00:44:37;101223.81;;;34.39;46.56
45441;BME280;31189;38.790;-77.084;2023-07-20T00:47:02;101222.11;;;33.92;47.22
45441;BME280;31189;38.790;-77.084;2023-07-20T00:49:27;101222.76;;;34.20;46.75
45441;BME280;31189;38.790;-77.084;2023-07-20T00:51:52;101225.52;;;33.12;48.29
45441;BME280;31189;38.790;-77.084;2023-07-20T00:54:18;101233.97;;;34.04;46.74
45441;BME280;31189;38.790;-77.084;2023-07-20T00:56:44;101248.55;;;33.80;46.68
45441;BME280;31189;38.790;-77.084;2023-07-20T00:59:09;101259.61;;;33.87;46.35
45441;BME280;31189;38.790;-77.084;2023-07-20T01:01:34;101260.13;;;33.97;46.16
45441;BME280;31189;38.790;-77.084;2023-07-20T01:04:00;101260.31;;;34.09;46.06
45441;BME280;31189;38.790;-77.084;2023-07-20T01:06:32;101266.20;;;34.01;46.30
45441;BME280;31189;38.790;-77.084;2023-07-20T01:09:00;101272.24;;;33.78;46.68
45441;BME280;31189;38.790;-77.084;2023-07-20T01:11:22;101276.85;;;34.03;46.31
45441;BME280;31189;38.790;-77.084;2023-07-20T01:13:43;101283.24;;;33.92;45.99
45441;BME280;31189;38.790;-77.084;2023-07-20T01:16:07;101288.54;;;34.00;45.90
45441;BME280;31189;38.790;-77.084;2023-07-20T01:18:33;101289.62;;;33.97;45.87
45441;BME280;31189;38.790;-77.084;2023-07-20T01:21:02;101288.34;;;33.86;45.95
45441;BME280;31189;38.790;-77.084;2023-07-20T01:23:38;101286.67;;;34.34;45.97
45441;BME280;31189;38.790;-77.084;2023-07-20T01:26:04;101289.55;;;34.04;46.19
45441;BME280;31189;38.790;-77.084;2023-07-20T01:28:34;101293.45;;;33.88;46.52
45441;BME280;31189;38.790;-77.084;2023-07-20T01:30:50;101291.02;;;33.22;47.35
45441;BME280;31189;38.790;-77.084;2023-07-20T01:33:06;101284.00;;;33.49;47.22
45441;BME280;31189;38.790;-77.084;2023-07-20T01:35:30;101285.31;;;33.38;46.89
45441;BME280;31189;38.790;-77.084;2023-07-20T01:37:56;101291.25;;;33.52;46.95
45441;BME280;31189;38.790;-77.084;2023-07-20T01:40:22;101292.36;;;33.37;46.68
45441;BME280;31189;38.790;-77.084;2023-07-20T01:42:46;101291.07;;;33.53;46.00
45441;BME280;31189;38.790;-77.084;2023-07-20T01:45:21;101296.50;;;33.53;46.92
45441;BME280;31189;38.790;-77.084;2023-07-20T01:47:37;101297.66;;;33.97;47.23
45441;BME280;31189;38.790;-77.084;2023-07-20T01:50:02;101295.26;;;33.44;48.04
45441;BME280;31189;38.790;-77.084;2023-07-20T01:52:33;101290.94;;;33.86;47.63
45441;BME280;31189;38.790;-77.084;2023-07-20T01:54:53;101294.35;;;33.54;47.74
45441;BME280;31189;38.790;-77.084;2023-07-20T01:57:18;101300.12;;;33.50;47.71
45441;BME280;31189;38.790;-77.084;2023-07-20T01:59:44;101299.38;;;33.46;47.67
45441;BME280;31189;38.790;-77.084;2023-07-20T02:02:10;101297.61;;;33.65;47.60
45441;BME280;31189;38.790;-77.084;2023-07-20T02:04:35;101296.48;;;33.59;47.85
45441;BME280;31189;38.790;-77.084;2023-07-20T02:07:01;101297.23;;;33.15;48.59
45441;BME280;31189;38.790;-77.084;2023-07-20T02:09:26;101303.53;;;33.35;48.00
45441;BME280;31189;38.790;-77.084;2023-07-20T02:11:52;101307.43;;;33.08;47.85
45441;BME280;31189;38.790;-77.084;2023-07-20T02:14:17;101306.04;;;33.54;47.95
45441;BME280;31189;38.790;-77.084;2023-07-20T02:16:43;101306.50;;;33.44;47.96
45441;BME280;31189;38.790;-77.084;2023-07-20T02:19:08;101308.30;;;33.34;48.32
45441;BME280;31189;38.790;-77.084;2023-07-20T02:21:33;101313.35;;;32.99;48.62
45441;BME280;31189;38.790;-77.084;2023-07-20T02:23:59;101311.48;;;33.18;48.74
45441;BME280;31189;38.790;-77.084;2023-07-20T02:26:24;101312.31;;;33.14;48.91
45441;BME280;31189;38.790;-77.084;2023-07-20T02:28:51;101312.03;;;32.83;49.19
45441;BME280;31189;38.790;-77.084;2023-07-20T02:31:15;101316.10;;;32.20;52.01
45441;BME280;31189;38.790;-77.084;2023-07-20T02:33:40;101314.40;;;32.81;49.79
45441;BME280;31189;38.790;-77.084;2023-07-20T02:36:05;101315.23;;;32.98;48.75
45441;BME280;31189;38.790;-77.084;2023-07-20T02:38:31;101319.71;;;32.95;49.21
45441;BME280;31189;38.790;-77.084;2023-07-20T02:40:56;101320.37;;;32.86;49.93
45441;BME280;31189;38.790;-77.084;2023-07-20T02:43:21;101322.20;;;33.13;50.06
45441;BME280;31189;38.790;-77.084;2023-07-20T02:45:47;101321.98;;;32.86;50.47
45441;BME280;31189;38.790;-77.084;2023-07-20T02:48:13;101324.09;;;32.85;50.00
45441;BME280;31189;38.790;-77.084;2023-07-20T02:50:38;101319.32;;;32.72;50.42
45441;BME280;31189;38.790;-77.084;2023-07-20T02:53:03;101320.66;;;32.66;50.72
45441;BME280;31189;38.790;-77.084;2023-07-20T02:55:28;101318.99;;;32.61;50.66
45441;BME280;31189;38.790;-77.084;2023-07-20T02:57:54;101322.88;;;32.52;50.93
45441;BME280;31189;38.790;-77.084;2023-07-20T03:00:21;101325.94;;;32.41;51.10
45441;BME280;31189;38.790;-77.084;2023-07-20T03:02:46;101329.13;;;32.27;51.45
45441;BME280;31189;38.790;-77.084;2023-07-20T03:05:11;101332.16;;;31.84;53.40
45441;BME280;31189;38.790;-77.084;2023-07-20T03:07:37;101334.46;;;32.16;52.14
45441;BME280;31189;38.790;-77.084;2023-07-20T03:10:03;101336.58;;;32.54;51.62
45441;BME280;31189;38.790;-77.084;2023-07-20T03:12:27;101338.28;;;32.42;51.79
45441;BME280;31189;38.790;-77.084;2023-07-20T03:14:52;101342.53;;;32.43;51.63
45441;BME280;31189;38.790;-77.084;2023-07-20T03:17:18;101344.43;;;32.40;51.99
45441;BME280;31189;38.790;-77.084;2023-07-20T03:19:43;101349.45;;;32.56;52.13
45441;BME280;31189;38.790;-77.084;2023-07-20T03:22:09;101350.84;;;32.07;52.34
45441;BME280;31189;38.790;-77.084;2023-07-20T03:24:34;101347.37;;;32.09;52.49
45441;BME280;31189;38.790;-77.084;2023-07-20T03:27:00;101346.92;;;32.13;52.39
45441;BME280;31189;38.790;-77.084;2023-07-20T03:29:25;101345.01;;;32.36;52.67
45441;BME280;31189;38.790;-77.084;2023-07-20T03:31:51;101348.04;;;32.05;52.27
45441;BME280;31189;38.790;-77.084;2023-07-20T03:34:16;101346.26;;;32.35;51.79
45441;BME280;31189;38.790;-77.084;2023-07-20T03:36:41;101344.49;;;32.56;51.69
45441;BME280;31189;38.790;-77.084;2023-07-20T03:39:06;101341.25;;;32.41;51.80
45441;BME280;31189;38.790;-77.084;2023-07-20T03:41:31;101343.55;;;31.86;52.07
45441;BME280;31189;38.790;-77.084;2023-07-20T03:43:56;101345.07;;;31.93;51.70
45441;BME280;31189;38.790;-77.084;2023-07-20T03:46:22;101347.45;;;32.36;51.88
45441;BME280;31189;38.790;-77.084;2023-07-20T03:48:48;101347.93;;;32.08;52.16
45441;BME280;31189;38.790;-77.084;2023-07-20T03:51:13;101346.30;;;32.09;52.41
45441;BME280;31189;38.790;-77.084;2023-07-20T03:53:38;101343.50;;;31.84;52.54
45441;BME280;31189;38.790;-77.084;2023-07-20T03:56:04;101343.86;;;32.08;52.65
45441;BME280;31189;38.790;-77.084;2023-07-20T03:58:29;101346.08;;;32.10;52.34
45441;BME280;31189;38.790;-77.084;2023-07-20T04:00:55;101348.18;;;31.91;51.93
45441;BME280;31189;38.790;-77.084;2023-07-20T04:03:21;101351.48;;;31.93;52.02
45441;BME280;31189;38.790;-77.084;2023-07-20T04:05:46;101355.18;;;32.02;52.50
45441;BME280;31189;38.790;-77.084;2023-07-20T04:08:11;101357.51;;;31.73;52.65
45441;BME280;31189;38.790;-77.084;2023-07-20T04:10:36;101357.98;;;31.76;52.43
45441;BME280;31189;38.790;-77.084;2023-07-20T04:13:02;101352.88;;;32.03;52.83
45441;BME280;31189;38.790;-77.084;2023-07-20T04:15:27;101350.51;;;32.29;52.42
45441;BME280;31189;38.790;-77.084;2023-07-20T04:17:52;101344.89;;;31.83;52.34
45441;BME280;31189;38.790;-77.084;2023-07-20T04:20:17;101346.07;;;32.02;52.75
45441;BME280;31189;38.790;-77.084;2023-07-20T04:22:43;101348.44;;;31.95;52.89
45441;BME280;31189;38.790;-77.084;2023-07-20T04:25:09;101346.01;;;32.20;52.78
45441;BME280;31189;38.790;-77.084;2023-07-20T04:27:34;101340.96;;;32.17;52.73
45441;BME280;31189;38.790;-77.084;2023-07-20T04:29:59;101334.37;;;32.11;53.17
45441;BME280;31189;38.790;-77.084;2023-07-20T04:32:26;101330.51;;;32.06;53.06
45441;BME280;31189;38.790;-77.084;2023-07-20T04:34:56;101330.26;;;31.79;53.29
45441;BME280;31189;38.790;-77.084;2023-07-20T04:37:16;101331.10;;;31.91;53.62
45441;BME280;31189;38.790;-77.084;2023-07-20T04:39:41;101329.40;;;31.54;53.90
45441;BME280;31189;38.790;-77.084;2023-07-20T04:42:07;101328.30;;;31.62;53.82
45441;BME280;31189;38.790;-77.084;2023-07-20T04:44:32;101325.10;;;31.77;54.35
45441;BME280;31189;38.790;-77.084;2023-07-20T04:46:57;101323.46;;;31.65;54.95
45441;BME280;31189;38.790;-77.084;2023-07-20T04:49:22;101325.48;;;31.87;54.93
45441;BME280;31189;38.790;-77.084;2023-07-20T04:51:48;101327.13;;;31.68;54.98
45441;BME280;31189;38.790;-77.084;2023-07-20T04:54:13;101324.86;;;31.76;54.43
45441;BME280;31189;38.790;-77.084;2023-07-20T04:56:39;101325.92;;;31.73;54.76
45441;BME280;31189;38.790;-77.084;2023-07-20T04:59:04;101324.56;;;31.76;54.53
45441;BME280;31189;38.790;-77.084;2023-07-20T05:01:30;101325.50;;;31.49;55.67
45441;BME280;31189;38.790;-77.084;2023-07-20T05:03:55;101328.18;;;31.54;55.85
45441;BME280;31189;38.790;-77.084;2023-07-20T05:06:20;101327.65;;;31.67;55.21
45441;BME280;31189;38.790;-77.084;2023-07-20T05:08:46;101328.19;;;31.60;55.45
45441;BME280;31189;38.790;-77.084;2023-07-20T05:11:12;101335.48;;;31.45;56.03
45441;BME280;31189;38.790;-77.084;2023-07-20T05:13:37;101338.67;;;31.54;56.62
45441;BME280;31189;38.790;-77.084;2023-07-20T05:16:03;101342.76;;;30.98;57.82
45441;BME280;31189;38.790;-77.084;2023-07-20T05:18:28;101344.51;;;31.44;56.49
45441;BME280;31189;38.790;-77.084;2023-07-20T05:20:53;101344.08;;;31.62;55.74
45441;BME280;31189;38.790;-77.084;2023-07-20T05:23:19;101335.92;;;31.71;55.35
45441;BME280;31189;38.790;-77.084;2023-07-20T05:25:45;101330.92;;;31.69;55.43
45441;BME280;31189;38.790;-77.084;2023-07-20T05:28:09;101330.40;;;31.48;56.25
45441;BME280;31189;38.790;-77.084;2023-07-20T05:30:34;101333.56;;;31.47;56.29
45441;BME280;31189;38.790;-77.084;2023-07-20T05:32:59;101331.07;;;31.56;56.70
45441;BME280;31189;38.790;-77.084;2023-07-20T05:35:25;101329.48;;;31.20;57.06
45441;BME280;31189;38.790;-77.084;2023-07-20T05:37:50;101327.19;;;31.61;56.60
45441;BME280;31189;38.790;-77.084;2023-07-20T05:40:15;101325.00;;;31.57;56.60
45441;BME280;31189;38.790;-77.084;2023-07-20T05:42:41;101327.55;;;31.71;56.13
45441;BME280;31189;38.790;-77.084;2023-07-20T05:45:07;101327.31;;;31.43;56.20
45441;BME280;31189;38.790;-77.084;2023-07-20T05:47:31;101327.66;;;30.33;59.74
45441;BME280;31189;38.790;-77.084;2023-07-20T05:49:57;101326.70;;;30.52;58.75
45441;BME280;31189;38.790;-77.084;2023-07-20T05:52:22;101330.25;;;31.11;57.10
45441;BME280;31189;38.790;-77.084;2023-07-20T05:54:47;101332.13;;;31.57;55.92
45441;BME280;31189;38.790;-77.084;2023-07-20T05:57:13;101331.61;;;30.58;58.14
45441;BME280;31189;38.790;-77.084;2023-07-20T06:02:04;101329.97;;;31.11;57.44
45441;BME280;31189;38.790;-77.084;2023-07-20T06:04:29;101326.21;;;30.99;57.03
45441;BME280;31189;38.790;-77.084;2023-07-20T06:06:59;101323.87;;;31.21;56.66
45441;BME280;31189;38.790;-77.084;2023-07-20T06:09:25;101324.34;;;31.01;56.38
45441;BME280;31189;38.790;-77.084;2023-07-20T06:11:45;101325.28;;;31.21;55.52
45441;BME280;31189;38.790;-77.084;2023-07-20T06:14:11;101328.04;;;31.36;55.54
45441;BME280;31189;38.790;-77.084;2023-07-20T06:16:36;101322.37;;;30.94;55.65
45441;BME280;31189;38.790;-77.084;2023-07-20T06:19:01;101319.58;;;31.27;55.19
45441;BME280;31189;38.790;-77.084;2023-07-20T06:21:26;101319.78;;;31.00;55.29
45441;BME280;31189;38.790;-77.084;2023-07-20T06:23:51;101316.31;;;31.25;55.24
45441;BME280;31189;38.790;-77.084;2023-07-20T06:26:16;101310.95;;;30.97;55.31
45441;BME280;31189;38.790;-77.084;2023-07-20T06:28:42;101312.88;;;31.31;55.20
45441;BME280;31189;38.790;-77.084;2023-07-20T06:31:07;101311.04;;;31.37;55.11
45441;BME280;31189;38.790;-77.084;2023-07-20T06:33:33;101315.03;;;31.14;55.14
45441;BME280;31189;38.790;-77.084;2023-07-20T06:35:58;101312.29;;;31.44;54.66
45441;BME280;31189;38.790;-77.084;2023-07-20T06:38:23;101311.41;;;31.25;54.19
45441;BME280;31189;38.790;-77.084;2023-07-20T06:40:49;101305.58;;;31.71;53.93
45441;BME280;31189;38.790;-77.084;2023-07-20T06:43:14;101299.32;;;31.27;53.12
45441;BME280;31189;38.790;-77.084;2023-07-20T06:45:40;101302.11;;;31.17;53.07
45441;BME280;31189;38.790;-77.084;2023-07-20T06:48:05;101299.06;;;31.13;52.88
45441;BME280;31189;38.790;-77.084;2023-07-20T06:50:30;101294.13;;;31.07;52.01
45441;BME280;31189;38.790;-77.084;2023-07-20T06:52:55;101290.94;;;31.33;51.65
45441;BME280;31189;38.790;-77.084;2023-07-20T06:55:25;101287.48;;;31.37;50.96
45441;BME280;31189;38.790;-77.084;2023-07-20T06:57:45;101287.12;;;31.21;51.62
45441;BME280;31189;38.790;-77.084;2023-07-20T07:00:12;101287.33;;;31.51;51.58
45441;BME280;31189;38.790;-77.084;2023-07-20T07:02:36;101287.44;;;31.49;51.10
45441;BME280;31189;38.790;-77.084;2023-07-20T07:05:07;101290.81;;;31.37;51.31
45441;BME280;31189;38.790;-77.084;2023-07-20T07:07:28;101295.65;;;31.12;51.71
45441;BME280;31189;38.790;-77.084;2023-07-20T07:09:52;101293.49;;;31.27;51.74
45441;BME280;31189;38.790;-77.084;2023-07-20T07:12:18;101301.72;;;31.14;51.73
45441;BME280;31189;38.790;-77.084;2023-07-20T07:14:44;101301.67;;;30.82;51.43
45441;BME280;31189;38.790;-77.084;2023-07-20T07:17:09;101306.48;;;31.15;51.98
45441;BME280;31189;38.790;-77.084;2023-07-20T07:19:35;101302.25;;;31.10;51.99
45441;BME280;31189;38.790;-77.084;2023-07-20T07:22:00;101294.90;;;30.94;52.06
45441;BME280;31189;38.790;-77.084;2023-07-20T07:24:25;101288.23;;;30.74;51.86
45441;BME280;31189;38.790;-77.084;2023-07-20T07:26:51;101281.95;;;30.97;51.82
45441;BME280;31189;38.790;-77.084;2023-07-20T07:29:16;101281.38;;;30.70;52.14
45441;BME280;31189;38.790;-77.084;2023-07-20T07:31:41;101282.43;;;30.81;52.39
45441;BME280;31189;38.790;-77.084;2023-07-20T07:34:25;101284.23;;;30.50;52.78
45441;BME280;31189;38.790;-77.084;2023-07-20T07:36:32;101284.50;;;30.65;52.91
45441;BME280;31189;38.790;-77.084;2023-07-20T07:38:57;101279.44;;;30.55;53.19
45441;BME280;31189;38.790;-77.084;2023-07-20T07:41:23;101276.64;;;30.35;53.82
45441;BME280;31189;38.790;-77.084;2023-07-20T07:43:48;101279.95;;;30.32;54.35
45441;BME280;31189;38.790;-77.084;2023-07-20T07:46:14;101274.71;;;30.39;53.58
45441;BME280;31189;38.790;-77.084;2023-07-20T07:48:39;101276.60;;;30.41;53.15
45441;BME280;31189;38.790;-77.084;2023-07-20T07:51:05;101269.38;;;30.33;53.26
45441;BME280;31189;38.790;-77.084;2023-07-20T07:53:30;101265.34;;;30.45;53.44
45441;BME280;31189;38.790;-77.084;2023-07-20T07:55:55;101262.93;;;30.17;53.68
45441;BME280;31189;38.790;-77.084;2023-07-20T07:58:21;101260.41;;;30.04;53.86
45441;BME280;31189;38.790;-77.084;2023-07-20T08:00:46;101256.67;;;30.27;53.78
45441;BME280;31189;38.790;-77.084;2023-07-20T08:03:11;101257.09;;;30.06;53.43
45441;BME280;31189;38.790;-77.084;2023-07-20T08:05:37;101257.49;;;30.08;53.12
45441;BME280;31189;38.790;-77.084;2023-07-20T08:08:03;101257.42;;;30.03;52.67
45441;BME280;31189;38.790;-77.084;2023-07-20T08:10:28;101258.72;;;30.22;51.88
45441;BME280;31189;38.790;-77.084;2023-07-20T08:12:53;101264.16;;;30.41;51.96
45441;BME280;31189;38.790;-77.084;2023-07-20T08:15:24;101267.69;;;29.91;51.85
45441;BME280;31189;38.790;-77.084;2023-07-20T08:17:45;101275.31;;;29.91;51.45
45441;BME280;31189;38.790;-77.084;2023-07-20T08:20:12;101278.21;;;30.28;51.81
45441;BME280;31189;38.790;-77.084;2023-07-20T08:22:35;101275.11;;;30.10;51.62
45441;BME280;31189;38.790;-77.084;2023-07-20T08:25:00;101273.40;;;29.98;51.96
45441;BME280;31189;38.790;-77.084;2023-07-20T08:27:25;101277.48;;;30.21;52.47
45441;BME280;31189;38.790;-77.084;2023-07-20T08:29:51;101284.71;;;29.79;52.24
45441;BME280;31189;38.790;-77.084;2023-07-20T08:32:16;101290.35;;;30.23;52.03
45441;BME280;31189;38.790;-77.084;2023-07-20T08:34:42;101293.49;;;30.14;52.11
45441;BME280;31189;38.790;-77.084;2023-07-20T08:37:07;101291.21;;;29.81;52.90
45441;BME280;31189;38.790;-77.084;2023-07-20T08:39:32;101286.99;;;29.83;52.80
45441;BME280;31189;38.790;-77.084;2023-07-20T08:42:00;101287.76;;;29.96;52.39
45441;BME280;31189;38.790;-77.084;2023-07-20T08:44:25;101286.50;;;29.90;52.84
45441;BME280;31189;38.790;-77.084;2023-07-20T08:46:49;101285.45;;;30.05;53.11
45441;BME280;31189;38.790;-77.084;2023-07-20T08:49:15;101279.67;;;30.03;52.79
45441;BME280;31189;38.790;-77.084;2023-07-20T08:51:39;101272.41;;;29.91;53.15
45441;BME280;31189;38.790;-77.084;2023-07-20T08:54:05;101266.69;;;29.90;52.76
45441;BME280;31189;38.790;-77.084;2023-07-20T08:56:35;101265.05;;;29.39;52.71
45441;BME280;31189;38.790;-77.084;2023-07-20T08:58:57;101266.71;;;29.58;52.65
45441;BME280;31189;38.790;-77.084;2023-07-20T09:01:22;101268.90;;;29.85;52.25
45441;BME280;31189;38.790;-77.084;2023-07-20T09:03:47;101267.86;;;29.88;52.68
45441;BME280;31189;38.790;-77.084;2023-07-20T09:06:12;101266.52;;;29.34;52.11
45441;BME280;31189;38.790;-77.084;2023-07-20T09:08:38;101273.19;;;29.85;52.76
45441;BME280;31189;38.790;-77.084;2023-07-20T09:11:04;101277.17;;;29.88;52.42
45441;BME280;31189;38.790;-77.084;2023-07-20T09:13:29;101276.35;;;29.38;52.15
45441;BME280;31189;38.790;-77.084;2023-07-20T09:15:55;101276.24;;;29.91;51.60
45441;BME280;31189;38.790;-77.084;2023-07-20T09:18:27;101279.52;;;29.89;51.54
45441;BME280;31189;38.790;-77.084;2023-07-20T09:20:46;101282.17;;;29.81;51.57
45441;BME280;31189;38.790;-77.084;2023-07-20T09:23:11;101284.78;;;29.71;51.19
45441;BME280;31189;38.790;-77.084;2023-07-20T09:25:36;101289.46;;;29.28;52.34
45441;BME280;31189;38.790;-77.084;2023-07-20T09:28:03;101291.30;;;28.04;56.27
45441;BME280;31189;38.790;-77.084;2023-07-20T09:30:26;101290.78;;;28.44;54.96
45441;BME280;31189;38.790;-77.084;2023-07-20T09:32:57;101297.14;;;28.72;54.38
45441;BME280;31189;38.790;-77.084;2023-07-20T09:35:19;101301.47;;;29.35;52.35
45441;BME280;31189;38.790;-77.084;2023-07-20T09:37:48;101302.27;;;29.40;52.20
45441;BME280;31189;38.790;-77.084;2023-07-20T09:40:09;101307.44;;;29.30;52.37
45441;BME280;31189;38.790;-77.084;2023-07-20T09:42:35;101309.93;;;29.26;52.29
45441;BME280;31189;38.790;-77.084;2023-07-20T09:44:59;101311.09;;;29.22;52.36
45441;BME280;31189;38.790;-77.084;2023-07-20T09:47:25;101316.64;;;29.42;52.67
45441;BME280;31189;38.790;-77.084;2023-07-20T09:49:57;101319.03;;;29.50;52.28
45441;BME280;31189;38.790;-77.084;2023-07-20T09:52:16;101322.01;;;29.50;52.81
45441;BME280;31189;38.790;-77.084;2023-07-20T09:54:44;101325.85;;;29.58;51.87
45441;BME280;31189;38.790;-77.084;2023-07-20T09:57:07;101332.34;;;29.28;51.89
45441;BME280;31189;38.790;-77.084;2023-07-20T09:59:32;101337.34;;;29.45;52.35
45441;BME280;31189;38.790;-77.084;2023-07-20T10:01:58;101340.87;;;29.42;52.39
45441;BME280;31189;38.790;-77.084;2023-07-20T10:04:24;101342.62;;;29.17;52.37
45441;BME280;31189;38.790;-77.084;2023-07-20T10:06:50;101342.91;;;28.99;52.52
45441;BME280;31189;38.790;-77.084;2023-07-20T10:09:15;101345.48;;;29.15;52.07
45441;BME280;31189;38.790;-77.084;2023-07-20T10:11:42;101348.85;;;29.23;51.78
45441;BME280;31189;38.790;-77.084;2023-07-20T10:14:05;101352.74;;;29.23;51.69
45441;BME280;31189;38.790;-77.084;2023-07-20T10:16:33;101357.77;;;29.23;51.59
45441;BME280;31189;38.790;-77.084;2023-07-20T10:19:03;101363.54;;;29.10;52.05
45441;BME280;31189;38.790;-77.084;2023-07-20T10:21:21;101365.22;;;29.06;52.27
45441;BME280;31189;38.790;-77.084;2023-07-20T10:23:47;101366.42;;;29.02;52.80
45441;BME280;31189;38.790;-77.084;2023-07-20T10:26:11;101365.00;;;29.29;52.98
45441;BME280;31189;38.790;-77.084;2023-07-20T10:28:38;101360.64;;;29.09;53.07
45441;BME280;31189;38.790;-77.084;2023-07-20T10:31:02;101360.41;;;29.14;52.78
45441;BME280;31189;38.790;-77.084;2023-07-20T10:33:27;101362.57;;;29.18;52.52
45441;BME280;31189;38.790;-77.084;2023-07-20T10:35:54;101366.60;;;29.13;53.07
45441;BME280;31189;38.790;-77.084;2023-07-20T10:38:18;101363.66;;;29.13;53.01
45441;BME280;31189;38.790;-77.084;2023-07-20T10:40:43;101360.75;;;29.22;52.55
45441;BME280;31189;38.790;-77.084;2023-07-20T10:43:09;101361.68;;;29.20;52.87
45441;BME280;31189;38.790;-77.084;2023-07-20T10:45:36;101364.19;;;29.16;52.86
45441;BME280;31189;38.790;-77.084;2023-07-20T10:48:05;101367.72;;;29.15;52.60
45441;BME280;31189;38.790;-77.084;2023-07-20T10:50:25;101366.31;;;29.21;52.27
45441;BME280;31189;38.790;-77.084;2023-07-20T10:55:17;101362.22;;;29.22;52.82
45441;BME280;31189;38.790;-77.084;2023-07-20T10:57:41;101364.73;;;29.23;52.99
45441;BME280;31189;38.790;-77.084;2023-07-20T11:00:13;101368.08;;;29.24;53.19
45441;BME280;31189;38.790;-77.084;2023-07-20T11:02:43;101370.80;;;29.26;53.54
45441;BME280;31189;38.790;-77.084;2023-07-20T11:04:58;101377.41;;;29.35;53.65
45441;BME280;31189;38.790;-77.084;2023-07-20T11:09:48;101382.85;;;29.44;54.12
45441;BME280;31189;38.790;-77.084;2023-07-20T11:12:15;101387.83;;;29.54;53.97
45441;BME280;31189;38.790;-77.084;2023-07-20T11:14:41;101391.48;;;29.68;53.85
45441;BME280;31189;38.790;-77.084;2023-07-20T11:17:13;101392.24;;;29.78;53.96
45441;BME280;31189;38.790;-77.084;2023-07-20T11:19:30;101394.78;;;29.50;53.86
45441;BME280;31189;38.790;-77.084;2023-07-20T11:21:56;101398.18;;;29.61;53.25
45441;BME280;31189;38.790;-77.084;2023-07-20T11:24:21;101394.14;;;30.26;53.35
45441;BME280;31189;38.790;-77.084;2023-07-20T11:26:47;101390.95;;;29.85;53.09
45441;BME280;31189;38.790;-77.084;2023-07-20T11:29:12;101390.57;;;29.94;53.44
45441;BME280;31189;38.790;-77.084;2023-07-20T11:31:38;101391.39;;;30.08;53.04
45441;BME280;31189;38.790;-77.084;2023-07-20T11:34:02;101387.23;;;30.20;52.41
45441;BME280;31189;38.790;-77.084;2023-07-20T11:36:33;101383.70;;;30.29;51.98
45441;BME280;31189;38.790;-77.084;2023-07-20T11:38:53;101386.50;;;30.35;52.08
45441;BME280;31189;38.790;-77.084;2023-07-20T11:41:19;101393.00;;;30.52;51.89
45441;BME280;31189;38.790;-77.084;2023-07-20T11:43:45;101396.30;;;30.59;51.21
45441;BME280;31189;38.790;-77.084;2023-07-20T11:46:09;101398.58;;;30.67;50.72
45441;BME280;31189;38.790;-77.084;2023-07-20T11:48:34;101397.89;;;30.73;49.94
45441;BME280;31189;38.790;-77.084;2023-07-20T11:51:00;101398.43;;;30.82;50.44
45441;BME280;31189;38.790;-77.084;2023-07-20T11:53:25;101395.50;;;30.80;50.17
45441;BME280;31189;38.790;-77.084;2023-07-20T11:55:51;101395.34;;;30.72;51.55
45441;BME280;31189;38.790;-77.084;2023-07-20T11:58:16;101397.51;;;30.60;52.39
45441;BME280;31189;38.790;-77.084;2023-07-20T12:00:44;101402.14;;;30.62;52.25
45441;BME280;31189;38.790;-77.084;2023-07-20T12:03:07;101397.53;;;30.60;51.82
45441;BME280;31189;38.790;-77.084;2023-07-20T12:05:32;101401.15;;;30.64;51.95
45441;BME280;31189;38.790;-77.084;2023-07-20T12:07:57;101404.33;;;30.68;52.61
45441;BME280;31189;38.790;-77.084;2023-07-20T12:10:26;101405.43;;;30.53;52.13
45441;BME280;31189;38.790;-77.084;2023-07-20T12:12:48;101405.12;;;30.64;52.77
45441;BME280;31189;38.790;-77.084;2023-07-20T12:15:14;101406.70;;;30.91;52.24
45441;BME280;31189;38.790;-77.084;2023-07-20T12:17:42;101403.49;;;30.70;51.56
45441;BME280;31189;38.790;-77.084;2023-07-20T12:20:05;101403.49;;;30.97;51.58
45441;BME280;31189;38.790;-77.084;2023-07-20T12:22:29;101406.42;;;30.53;50.60
45441;BME280;31189;38.790;-77.084;2023-07-20T12:24:54;101408.76;;;30.57;50.05
45441;BME280;31189;38.790;-77.084;2023-07-20T12:27:19;101407.53;;;31.13;50.48